Historyczne dane pomiarowe

Dodano dane terminowe – wersja testowa.

Dane z okresu 1951-2019

Wersja bazy: 1.34 [2019-03-16, lista zmian], aktualizacja planowana na 2019-04-15

Dane meteo z obszaru Polski uzyskane na podstawie danych udostępnionych przez Instytut Meteorologii i Gospodarki Wodnej – Państwowy Instytut Badawczy.

 

Wybierz Datę:    

       

TemperaturaWilgotnośćWiatrCiśnienieOpadyŚniegCzas trwania zjawisk
 Stacja t tx tn tng RH VA  wxwx mslp ppp RRR   cm mm wxwxwxwxwxwxwx
1983-04-17 8.0 13.3 0.0 -1.8 56.0- 3.3 3.7---- 0.0------------
1983-04-18 8.6 14.0 0.3 -1.8 43.8- 3.3 8.3---- 0.0------------
1983-04-19 9.6 16.0 1.6 -1.3 53.8- 6.0 10.0---- 0.0------------
1983-04-20 14.1 21.0 10.2 8.8 67.5- 7.7 5.0---- 0.0------------
1983-04-21 16.2 22.8 8.8 5.7 59.0- 7.3 7.3---- 0.0------------
1983-04-22 17.6 22.0 14.8 11.4 53.8- 7.7 8.3---- 0.0------------
1983-04-23 14.9 18.5 13.7 11.3 68.3- 7.7 5.3---- 0.0------------
1983-04-24 14.2 19.0 9.8 7.2 71.0- 7.0 7.0---- 0.0------------
1983-04-25 15.7 22.5 12.9 11.8 67.3- 7.3 5.0---- 1.6------------
1983-04-26 16.2 22.8 5.9 4.2 60.0- 6.0 6.0---- 0.0------------
1983-04-27 16.1 22.0 11.9 7.3 52.8- 7.0 5.7---- 0.0------------
1983-04-28 15.2 20.5 11.1 8.8 64.0- 7.3 1.7---- 5.9------------
1983-04-29 14.7 20.0 11.1 10.3 76.8- 8.0 6.0---- 28.8------------
1983-04-30 12.6 19.8 10.4 10.3 75.3- 7.7 2.7---- 0.0------------
1983-05-01 12.8 20.0 6.3 5.7 75.8- 5.0 1.7---- 0.9------------
1983-05-02 11.4 16.8 8.1 7.8 80.0- 8.0 6.0---- 32.2------------
1983-05-03 11.4 16.3 8.5 8.4 77.8- 8.0 4.3---- 0.0------------
1983-05-04 10.5 15.9 6.4 3.2 68.8- 7.3 2.3---- 5.5------------
1983-05-05 9.1 12.3 7.4 7.3 76.8- 8.0 4.3---- 0.9------------
1983-05-06 7.9 11.0 5.9 3.6 78.0- 8.0 3.7---- 0.0------------
1983-05-07 9.1 13.9 6.4 5.0 76.8- 8.0 2.3---- 0.0------------
1983-05-08 10.9 16.9 3.1 0.3 56.5- 7.7 5.0---- 2.6------------
1983-05-09 11.4 13.5 9.4 7.3 87.5- 8.0 3.3---- 9.8------------
1983-05-10 12.0 14.0 9.4 10.2 93.5- 8.0 0.7---- 7.4------------
1983-05-11 14.2 20.0 7.4 6.8 74.3- 7.3 8.3---- 0.0------------
1983-05-12 16.8 20.8 13.9 12.2 66.3- 7.3 8.3---- 0.0------------
1983-05-13 19.2 24.8 14.2 12.2 60.5- 7.3 8.3---- 0.0------------
1983-05-14 19.8 24.3 15.5 13.3 64.8- 6.7 4.7---- 0.0------------
1983-05-15 21.2 28.0 13.3 11.7 61.5- 7.0 8.3---- 0.0------------
1983-05-16 23.9 29.0 20.3 17.6 52.8- 7.0 8.3---- 0.0------------
135.2 ms

 

Źródłem pochodzenia danych jest Instytut Meteorologii i Gospodarki Wodnej – Państwowy Instytut Badawczy. Dane Instytutu Meteorologii i Gospodarki Wodnej – Państwowego Instytutu Badawczego zostały przetworzone.

Dane źródłowe można odnaleźć na stronie https://dane.imgw.pl